createdAt,value
2023-01-09T00:00:52.100Z,96266.66
2023-01-09T00:03:26.636Z,96256.28
2023-01-09T00:05:59.632Z,96250.91
2023-01-09T00:08:32.659Z,96245.41
2023-01-09T00:11:06.515Z,96253.63
2023-01-09T00:13:40.071Z,96250.00
2023-01-09T00:16:13.079Z,96241.47
2023-01-09T00:18:47.475Z,96243.06
2023-01-09T00:21:21.448Z,96229.69
2023-01-09T00:23:55.542Z,96231.34
2023-01-09T00:26:28.590Z,96236.38
2023-01-09T00:29:01.609Z,96238.84
2023-01-09T00:31:34.659Z,96234.50
2023-01-09T00:34:11.355Z,96225.69
2023-01-09T00:36:44.392Z,96224.06
2023-01-09T00:39:17.429Z,96232.50
2023-01-09T00:41:55.565Z,96232.66
2023-01-09T00:44:34.127Z,96231.84
2023-01-09T00:47:13.639Z,96231.06
2023-01-09T00:49:49.065Z,96229.28
2023-01-09T00:52:23.341Z,96231.06
2023-01-09T00:54:56.383Z,96232.78
2023-01-09T00:57:29.610Z,96221.41
2023-01-09T01:00:03.529Z,96224.81
2023-01-09T01:02:36.678Z,96217.56
2023-01-09T01:05:28.943Z,96218.28
2023-01-09T01:08:01.934Z,96219.94
2023-01-09T01:10:34.956Z,96221.53
2023-01-09T01:13:08.551Z,96211.84
2023-01-09T01:15:42.115Z,96212.97
2023-01-09T01:18:15.964Z,96215.72
2023-01-09T01:20:50.309Z,96213.94
2023-01-09T01:23:23.415Z,96213.22
2023-01-09T01:25:56.419Z,96211.63
2023-01-09T01:28:29.400Z,96213.34
2023-01-09T01:31:02.926Z,96215.88
2023-01-09T01:33:37.019Z,96220.19
2023-01-09T01:36:11.745Z,96216.69
2023-01-09T01:38:46.746Z,96219.31
2023-01-09T01:41:29.487Z,96221.66
2023-01-09T01:44:06.584Z,96228.34
2023-01-09T01:46:39.644Z,96223.94
2023-01-09T01:49:20.263Z,96228.22
2023-01-09T01:51:55.828Z,96229.03
2023-01-09T01:54:31.239Z,96225.31
2023-01-09T01:57:06.071Z,96213.53
2023-01-09T01:59:43.092Z,96221.16
2023-01-09T02:02:16.368Z,96220.13
2023-01-09T02:04:52.089Z,96223.25
2023-01-09T02:07:26.659Z,96220.88
2023-01-09T02:10:01.004Z,96229.28
2023-01-09T02:12:34.051Z,96225.03
2023-01-09T02:15:10.899Z,96225.97
2023-01-09T02:18:11.981Z,96238.84
2023-01-09T02:20:53.490Z,96221.28
2023-01-09T02:24:08.530Z,96212.44
2023-01-09T02:27:08.201Z,96213.38
2023-01-09T02:30:38.068Z,96197.19
2023-01-09T02:33:27.138Z,96203.63
2023-01-09T02:36:14.332Z,96201.16
2023-01-09T02:39:04.959Z,96206.97
2023-01-09T02:41:44.544Z,96210.56
2023-01-09T02:44:24.609Z,96206.56
2023-01-09T02:47:36.917Z,96220.31
2023-01-09T02:50:17.618Z,96217.91
2023-01-09T02:53:10.640Z,96206.06
2023-01-09T02:56:00.152Z,96213.69
2023-01-09T02:58:55.148Z,96213.53
2023-01-09T03:01:37.437Z,96207.41
2023-01-09T03:04:22.048Z,96223.47
2023-01-09T03:07:02.773Z,96226.69
2023-01-09T03:09:38.742Z,96221.00
2023-01-09T03:12:17.583Z,96220.00
2023-01-09T03:14:54.667Z,96230.38
2023-01-09T03:17:31.921Z,96239.47
2023-01-09T03:20:10.608Z,96245.88
2023-01-09T03:22:54.845Z,96242.13
2023-01-09T03:25:29.754Z,96256.28
2023-01-09T03:28:06.061Z,96256.84
2023-01-09T03:30:39.114Z,96250.00
2023-01-09T03:33:12.320Z,96268.03
2023-01-09T03:35:46.644Z,96258.94
2023-01-09T03:38:19.622Z,96260.25
2023-01-09T03:40:52.622Z,96270.56
2023-01-09T03:43:25.893Z,96278.34
2023-01-09T03:45:59.576Z,96265.75
2023-01-09T03:48:32.626Z,96268.47
2023-01-09T03:51:07.324Z,96273.00
2023-01-09T03:53:40.354Z,96276.69
2023-01-09T03:56:13.414Z,96281.47
2023-01-09T03:58:46.429Z,96292.38
2023-01-09T04:01:19.573Z,96305.66
2023-01-09T04:03:52.733Z,96310.63
2023-01-09T04:06:27.073Z,96305.41
2023-01-09T04:09:00.069Z,96315.03
2023-01-09T04:11:33.136Z,96320.38
2023-01-09T04:14:06.162Z,96324.53
2023-01-09T04:16:39.149Z,96344.13
2023-01-09T04:19:12.148Z,96347.88
2023-01-09T04:21:46.479Z,96352.63
2023-01-09T04:24:19.766Z,96370.44
2023-01-09T04:26:52.785Z,96388.69
2023-01-09T04:29:25.774Z,96398.91
2023-01-09T04:31:58.786Z,96402.28
2023-01-09T04:34:31.813Z,96394.19
2023-01-09T04:37:06.254Z,96393.97
2023-01-09T04:39:40.701Z,96396.50
2023-01-09T04:42:14.337Z,96391.84
2023-01-09T04:44:47.341Z,96408.56
2023-01-09T04:47:20.740Z,96420.47
2023-01-09T04:49:53.732Z,96444.78
2023-01-09T04:52:29.575Z,96454.50
2023-01-09T04:55:02.622Z,96459.75
2023-01-09T04:57:35.984Z,96480.28
2023-01-09T05:00:12.214Z,96482.91
2023-01-09T05:02:45.392Z,96479.56
2023-01-09T05:05:18.535Z,96488.63
2023-01-09T05:07:52.838Z,96485.75
2023-01-09T05:10:25.814Z,96492.00
2023-01-09T05:12:58.795Z,96483.34
2023-01-09T05:15:31.907Z,96495.41
2023-01-09T05:18:05.182Z,96510.06
2023-01-09T05:20:38.246Z,96510.94
2023-01-09T05:23:12.594Z,96516.13
2023-01-09T05:25:45.850Z,96525.34
2023-01-09T05:28:18.855Z,96519.47
2023-01-09T05:30:51.861Z,96519.88
2023-01-09T05:33:24.990Z,96537.28
2023-01-09T05:35:57.976Z,96545.38
2023-01-09T05:38:32.349Z,96546.94
2023-01-09T05:41:05.591Z,96548.72
2023-01-09T05:43:38.651Z,96584.81
2023-01-09T05:46:11.737Z,96594.56
2023-01-09T05:48:45.518Z,96590.59
2023-01-09T05:51:18.650Z,96596.38
2023-01-09T05:53:53.020Z,96598.59
2023-01-09T05:56:26.235Z,96607.09
2023-01-09T05:58:59.236Z,96608.19
2023-01-09T06:01:32.296Z,96623.50
2023-01-09T06:04:05.617Z,96637.06
2023-01-09T06:06:39.829Z,96637.16
2023-01-09T06:09:14.239Z,96638.00
2023-01-09T06:11:47.223Z,96643.91
2023-01-09T06:14:20.413Z,96647.03
2023-01-09T06:16:53.481Z,96638.50
2023-01-09T06:19:26.593Z,96647.44
2023-01-09T06:21:59.618Z,96650.06
2023-01-09T06:24:33.979Z,96649.81
2023-01-09T06:27:07.682Z,96655.53
2023-01-09T06:29:40.976Z,96660.28
2023-01-09T06:32:14.011Z,96654.28
2023-01-09T06:34:47.017Z,96665.53
2023-01-09T06:37:20.046Z,96673.06
2023-01-09T06:39:54.776Z,96667.13
2023-01-09T06:42:27.962Z,96671.06
2023-01-09T06:45:00.996Z,96670.66
2023-01-09T06:47:34.006Z,96673.13
2023-01-09T06:50:09.266Z,96674.84
2023-01-09T06:52:42.281Z,96680.19
2023-01-09T06:55:17.788Z,96682.13
2023-01-09T06:57:50.819Z,96676.59
2023-01-09T07:00:24.258Z,96681.47
2023-01-09T07:02:57.275Z,96681.59
2023-01-09T07:05:30.968Z,96681.78
2023-01-09T07:08:04.192Z,96674.41
2023-01-09T07:10:38.529Z,96676.59
2023-01-09T07:13:11.710Z,96681.44
2023-01-09T07:15:44.826Z,96679.06
2023-01-09T07:18:17.870Z,96679.94
2023-01-09T07:20:50.869Z,96685.00
2023-01-09T07:23:23.933Z,96691.97
2023-01-09T07:25:58.335Z,96692.69
2023-01-09T07:28:31.433Z,96687.78
2023-01-09T07:31:04.826Z,96689.63
2023-01-09T07:33:37.891Z,96700.81
2023-01-09T07:36:11.508Z,96706.31
2023-01-09T07:38:44.553Z,96703.53
2023-01-09T07:41:18.948Z,96706.69
2023-01-09T07:43:51.984Z,96698.31
2023-01-09T07:46:24.979Z,96715.22
2023-01-09T07:48:57.991Z,96714.88
2023-01-09T07:51:31.015Z,96716.09
2023-01-09T07:54:03.998Z,96716.09
2023-01-09T07:56:38.356Z,96714.13
2023-01-09T07:59:11.613Z,96705.91
2023-01-09T08:01:44.648Z,96698.88
2023-01-09T08:04:17.650Z,96694.91
2023-01-09T08:06:50.730Z,96699.19
2023-01-09T08:09:23.768Z,96680.03
2023-01-09T08:11:58.379Z,96698.03
2023-01-09T08:14:31.635Z,96686.13
2023-01-09T08:17:04.668Z,96674.56
2023-01-09T08:19:37.645Z,96669.41
2023-01-09T08:22:10.758Z,96689.44
2023-01-09T08:24:43.818Z,96690.28
2023-01-09T08:27:18.203Z,96698.19
2023-01-09T08:29:51.210Z,96686.38
2023-01-09T08:32:24.172Z,96687.34
2023-01-09T08:34:57.400Z,96689.06
2023-01-09T08:37:30.428Z,96684.25
2023-01-09T08:40:03.492Z,96694.34
2023-01-09T08:42:55.592Z,96684.31
2023-01-09T08:45:46.170Z,96673.34
2023-01-09T08:48:19.216Z,96671.78
2023-01-09T08:50:54.055Z,96682.91
2023-01-09T08:53:27.063Z,96681.78
2023-01-09T08:56:00.179Z,96689.72
2023-01-09T08:58:35.005Z,96695.09
2023-01-09T09:01:08.847Z,96698.13
2023-01-09T09:03:41.896Z,96692.88
2023-01-09T09:06:14.899Z,96688.47
2023-01-09T09:08:47.983Z,96687.34
2023-01-09T09:11:20.982Z,96687.66
2023-01-09T09:13:55.312Z,96697.97
2023-01-09T09:16:28.934Z,96698.13
2023-01-09T09:19:01.976Z,96691.47
2023-01-09T09:21:34.920Z,96690.72
2023-01-09T09:24:08.145Z,96693.56
2023-01-09T09:26:42.227Z,96703.56
2023-01-09T09:29:18.137Z,96706.09
2023-01-09T09:31:51.165Z,96709.38
2023-01-09T09:34:24.410Z,96705.16
2023-01-09T09:36:57.442Z,96708.47
2023-01-09T09:39:30.593Z,96719.91
2023-01-09T09:42:54.625Z,96709.84
2023-01-09T09:45:38.781Z,96702.84
2023-01-09T09:48:28.051Z,96707.47
2023-01-09T09:51:27.336Z,96702.13
2023-01-09T09:54:03.938Z,96707.47
2023-01-09T09:56:48.542Z,96703.69
2023-01-09T09:59:26.899Z,96718.47
2023-01-09T10:02:07.186Z,96710.16
2023-01-09T10:04:46.635Z,96718.56
2023-01-09T10:07:25.129Z,96705.09
2023-01-09T10:10:05.055Z,96703.16
2023-01-09T10:12:46.243Z,96701.97
2023-01-09T10:15:25.806Z,96690.78
2023-01-09T10:18:18.356Z,96693.97
2023-01-09T10:20:59.605Z,96681.91
2023-01-09T10:24:13.761Z,96678.25
2023-01-09T10:26:49.453Z,96682.63
2023-01-09T10:29:46.096Z,96687.56
2023-01-09T10:32:56.204Z,96677.69
2023-01-09T10:35:52.295Z,96673.16
2023-01-09T10:38:31.853Z,96664.03
2023-01-09T10:41:11.771Z,96667.06
2023-01-09T10:43:50.440Z,96662.88
2023-01-09T10:46:29.782Z,96662.47
2023-01-09T10:49:05.382Z,96676.66
2023-01-09T10:51:48.985Z,96666.19
2023-01-09T10:54:23.989Z,96669.06
2023-01-09T10:57:01.717Z,96675.34
2023-01-09T10:59:34.787Z,96664.16
2023-01-09T11:02:27.832Z,96670.94
2023-01-09T11:05:01.010Z,96663.97
2023-01-09T11:07:39.171Z,96657.88
2023-01-09T11:10:15.514Z,96662.47
2023-01-09T11:12:48.691Z,96665.66
2023-01-09T11:15:32.262Z,96658.00
2023-01-09T11:18:24.970Z,96663.31
2023-01-09T11:21:13.477Z,96666.28
2023-01-09T11:23:49.951Z,96668.22
2023-01-09T11:26:25.656Z,96666.81
2023-01-09T11:29:11.635Z,96659.59
2023-01-09T11:31:53.456Z,96670.31
2023-01-09T11:34:29.114Z,96676.75
2023-01-09T11:37:07.823Z,96682.13
2023-01-09T11:39:48.086Z,96686.41
2023-01-09T11:42:43.975Z,96678.63
2023-01-09T11:45:18.846Z,96678.22
2023-01-09T11:47:51.848Z,96677.16
2023-01-09T11:50:27.405Z,96679.44
2023-01-09T11:53:16.454Z,96682.84
2023-01-09T11:56:01.078Z,96677.31
2023-01-09T11:58:35.867Z,96664.38
2023-01-09T12:01:27.102Z,96667.91
2023-01-09T12:04:16.273Z,96667.78
2023-01-09T12:07:08.496Z,96667.09
2023-01-09T12:09:47.416Z,96669.91
2023-01-09T12:12:31.565Z,96671.22
2023-01-09T12:15:24.747Z,96677.16
2023-01-09T12:18:16.047Z,96667.06
2023-01-09T12:21:03.805Z,96666.56
2023-01-09T12:24:01.826Z,96663.78
2023-01-09T12:26:42.308Z,96662.66
2023-01-09T12:29:59.144Z,96652.59
2023-01-09T12:32:51.599Z,96652.53
2023-01-09T12:35:35.107Z,96662.41
2023-01-09T12:38:29.448Z,96665.63
2023-01-09T12:41:25.775Z,96668.44
2023-01-09T12:44:35.535Z,96672.31
2023-01-09T12:47:29.811Z,96663.69
2023-01-09T12:50:31.472Z,96671.59
2023-01-09T12:53:15.201Z,96666.94
2023-01-09T12:55:54.939Z,96671.19
2023-01-09T12:58:37.341Z,96666.56
2023-01-09T13:01:16.521Z,96670.78
2023-01-09T13:04:00.811Z,96670.84
2023-01-09T13:06:36.291Z,96667.78
2023-01-09T13:09:23.116Z,96664.97
2023-01-09T13:12:04.637Z,96660.38
2023-01-09T13:14:52.267Z,96665.75
2023-01-09T13:17:31.386Z,96660.47
2023-01-09T13:20:19.179Z,96659.88
2023-01-09T13:22:53.227Z,96665.69
2023-01-09T13:25:40.975Z,96664.13
2023-01-09T13:28:19.934Z,96670.00
2023-01-09T13:31:36.311Z,96666.44
2023-01-09T13:34:21.793Z,96688.16
2023-01-09T13:36:58.526Z,96688.56
2023-01-09T13:39:33.889Z,96687.97
2023-01-09T13:42:38.900Z,96695.16
2023-01-09T13:45:22.943Z,96690.38
2023-01-09T13:48:40.591Z,96680.06
2023-01-09T13:52:00.263Z,96689.63
2023-01-09T13:55:36.119Z,96697.38
2023-01-09T13:58:25.966Z,96703.13
2023-01-09T14:01:03.169Z,96721.81
2023-01-09T14:03:38.204Z,96730.13
2023-01-09T14:06:19.221Z,96731.56
2023-01-09T14:09:20.331Z,96751.84
2023-01-09T14:12:04.873Z,96744.94
2023-01-09T14:14:43.408Z,96746.03
2023-01-09T14:17:19.289Z,96754.06
2023-01-09T14:19:58.520Z,96745.03
2023-01-09T14:22:45.375Z,96735.88
2023-01-09T14:25:32.828Z,96754.94
2023-01-09T14:28:22.108Z,96751.31
2023-01-09T14:31:08.906Z,96762.22
2023-01-09T14:33:42.097Z,96755.38
2023-01-09T14:36:19.534Z,96761.47
2023-01-09T14:38:54.553Z,96763.72
2023-01-09T14:41:53.765Z,96762.13
2023-01-09T14:44:30.856Z,96770.22
2023-01-09T14:47:16.123Z,96756.84
2023-01-09T14:49:56.688Z,96758.47
2023-01-09T14:52:32.401Z,96760.00
2023-01-09T14:55:18.803Z,96766.97
2023-01-09T14:57:55.028Z,96794.56
2023-01-09T15:00:28.186Z,96820.38
2023-01-09T15:03:03.965Z,96823.88
2023-01-09T15:05:37.949Z,96829.22
2023-01-09T15:08:17.972Z,96834.19
2023-01-09T15:10:53.977Z,96839.81
2023-01-09T15:13:37.117Z,96839.66
2023-01-09T15:16:20.565Z,96837.75
2023-01-09T15:18:56.905Z,96841.50
2023-01-09T15:21:32.093Z,96842.22
2023-01-09T15:24:13.908Z,96847.31
2023-01-09T15:26:54.614Z,96861.13
2023-01-09T15:29:29.982Z,96868.63
2023-01-09T15:32:07.278Z,96858.59
2023-01-09T15:34:41.068Z,96870.50
2023-01-09T15:37:30.783Z,96863.75
2023-01-09T15:40:07.951Z,96868.34
2023-01-09T15:42:58.064Z,96872.22
2023-01-09T15:45:37.276Z,96878.59
2023-01-09T15:48:24.037Z,96883.66
2023-01-09T15:50:59.954Z,96877.50
2023-01-09T15:53:33.476Z,96878.78
2023-01-09T15:56:17.329Z,96871.88
2023-01-09T15:58:51.738Z,96868.94
2023-01-09T16:01:32.095Z,96873.66
2023-01-09T16:04:08.945Z,96870.69
2023-01-09T16:06:47.408Z,96876.63
2023-01-09T16:09:26.757Z,96880.56
2023-01-09T16:12:03.209Z,96888.19
2023-01-09T16:14:39.065Z,96893.91
2023-01-09T16:17:18.858Z,96893.28
2023-01-09T16:19:53.735Z,96905.16
2023-01-09T16:22:29.549Z,96898.53
2023-01-09T16:25:20.128Z,96908.19
2023-01-09T16:30:55.154Z,96948.66
2023-01-09T16:33:31.405Z,96952.50
2023-01-09T16:36:06.182Z,96981.94
2023-01-09T16:38:39.202Z,96986.31
2023-01-09T16:41:33.543Z,97000.13
2023-01-09T16:44:09.550Z,96990.56
2023-01-09T16:46:44.854Z,96993.44
2023-01-09T16:49:22.762Z,96998.69
2023-01-09T16:51:56.973Z,96990.16
2023-01-09T16:54:31.033Z,96989.38
2023-01-09T16:57:04.637Z,96985.41
2023-01-09T16:59:37.662Z,96990.13
2023-01-09T17:02:18.807Z,96991.69
2023-01-09T17:04:55.203Z,96992.28
2023-01-09T17:07:31.078Z,96994.81
2023-01-09T17:10:04.832Z,96990.88
2023-01-09T17:12:38.547Z,96995.63
2023-01-09T17:15:12.239Z,97008.69
2023-01-09T17:17:45.254Z,97012.63
2023-01-09T17:20:21.407Z,97011.53
2023-01-09T17:22:54.404Z,97019.84
2023-01-09T17:25:44.956Z,97016.16
2023-01-09T17:28:35.911Z,97018.56
2023-01-09T17:31:12.702Z,97013.41
2023-01-09T17:33:45.767Z,97015.34
2023-01-09T17:36:28.390Z,97025.91
2023-01-09T17:39:02.828Z,97027.34
2023-01-09T17:41:35.894Z,97037.28
2023-01-09T17:44:10.753Z,97050.44
2023-01-09T17:46:45.558Z,97044.59
2023-01-09T17:49:23.131Z,97050.25
2023-01-09T17:51:57.585Z,97056.16
2023-01-09T17:54:31.303Z,97049.06
2023-01-09T17:57:04.661Z,97059.78
2023-01-09T17:59:37.670Z,97054.44
2023-01-09T18:02:17.997Z,97062.63
2023-01-09T18:04:51.183Z,97053.56
2023-01-09T18:07:25.552Z,97061.28
2023-01-09T18:09:58.844Z,97055.91
2023-01-09T18:12:31.820Z,97060.97
2023-01-09T18:15:05.305Z,97067.78
2023-01-09T18:17:38.315Z,97066.25
2023-01-09T18:20:12.642Z,97069.53
2023-01-09T18:22:47.610Z,97066.69
2023-01-09T18:25:21.717Z,97075.22
2023-01-09T18:27:54.734Z,97075.78
2023-01-09T18:30:28.184Z,97075.59
2023-01-09T18:33:01.196Z,97080.28
2023-01-09T18:35:34.931Z,97076.06
2023-01-09T18:38:09.627Z,97083.28
2023-01-09T18:40:42.688Z,97085.53
2023-01-09T18:43:16.395Z,97098.28
2023-01-09T18:45:49.407Z,97101.13
2023-01-09T18:48:22.516Z,97113.34
2023-01-09T18:51:05.133Z,97110.84
2023-01-09T18:53:39.440Z,97120.63
2023-01-09T18:56:12.478Z,97125.91
2023-01-09T18:58:45.488Z,97139.25
2023-01-09T19:01:19.293Z,97141.59
2023-01-09T19:03:52.440Z,97148.50
2023-01-09T19:06:25.608Z,97150.66
2023-01-09T19:09:00.960Z,97146.22
2023-01-09T19:11:33.952Z,97147.38
2023-01-09T19:14:06.893Z,97158.09
2023-01-09T19:16:40.144Z,97169.59
2023-01-09T19:19:13.197Z,97177.78
2023-01-09T19:21:46.410Z,97194.75
2023-01-09T19:24:21.220Z,97194.53
2023-01-09T19:26:54.314Z,97195.09
2023-01-09T19:29:27.754Z,97198.03
2023-01-09T19:32:00.837Z,97207.81
2023-01-09T19:34:33.940Z,97215.78
2023-01-09T19:37:09.465Z,97220.25
2023-01-09T19:39:43.954Z,97229.91
2023-01-09T19:42:17.949Z,97235.06
2023-01-09T19:44:50.993Z,97237.78
2023-01-09T19:47:24.057Z,97241.75
2023-01-09T19:49:57.049Z,97258.41
2023-01-09T19:52:30.039Z,97253.72
2023-01-09T19:55:04.528Z,97249.06
2023-01-09T19:57:37.646Z,97254.53
2023-01-09T20:00:12.511Z,97266.38
2023-01-09T20:02:45.494Z,97269.28
2023-01-09T20:05:18.770Z,97273.28
2023-01-09T20:07:55.018Z,97276.78
2023-01-09T20:10:29.325Z,97283.56
2023-01-09T20:13:02.295Z,97293.06
2023-01-09T20:15:35.288Z,97294.69
2023-01-09T20:18:08.285Z,97292.69
2023-01-09T20:20:44.264Z,97294.94
2023-01-09T20:23:19.444Z,97299.81
2023-01-09T20:25:54.497Z,97293.09
2023-01-09T20:28:28.689Z,97305.94
2023-01-09T20:31:03.098Z,97302.41
2023-01-09T20:33:36.172Z,97309.94
2023-01-09T20:36:10.373Z,97314.69
2023-01-09T20:38:44.305Z,97312.94
2023-01-09T20:41:23.463Z,97324.03
2023-01-09T20:43:59.585Z,97324.03
2023-01-09T20:46:36.801Z,97330.28
2023-01-09T20:49:13.197Z,97322.28
2023-01-09T20:51:48.455Z,97331.13
2023-01-09T20:54:22.948Z,97327.69
2023-01-09T20:56:57.236Z,97337.69
2023-01-09T20:59:30.234Z,97340.00
2023-01-09T21:02:03.239Z,97346.81
2023-01-09T21:04:36.208Z,97354.63
2023-01-09T21:07:10.811Z,97358.81
2023-01-09T21:09:43.911Z,97351.97
2023-01-09T21:12:34.664Z,97364.75
2023-01-09T21:15:11.547Z,97370.78
2023-01-09T21:17:45.007Z,97366.59
2023-01-09T21:20:18.064Z,97373.03
2023-01-09T21:22:51.098Z,97375.78
2023-01-09T21:25:24.189Z,97377.09
2023-01-09T21:27:58.792Z,97385.03
2023-01-09T21:30:31.847Z,97388.16
2023-01-09T21:33:05.080Z,97391.66
2023-01-09T21:35:38.195Z,97387.91
2023-01-09T21:38:11.203Z,97387.44
2023-01-09T21:40:44.254Z,97386.56
2023-01-09T21:43:44.634Z,97395.50
2023-01-09T21:46:36.496Z,97392.09
2023-01-09T21:49:09.544Z,97396.50
2023-01-09T21:51:42.603Z,97394.63
2023-01-09T21:54:15.648Z,97405.44
2023-01-09T21:56:48.662Z,97405.31
2023-01-09T21:59:22.988Z,97418.97
2023-01-09T22:01:56.149Z,97419.75
2023-01-09T22:04:30.457Z,97423.25
2023-01-09T22:07:03.538Z,97431.41
2023-01-09T22:09:37.257Z,97427.56
2023-01-09T22:12:12.316Z,97423.50
2023-01-09T22:14:46.603Z,97428.66
2023-01-09T22:17:19.547Z,97429.50
2023-01-09T22:19:52.576Z,97444.81
2023-01-09T22:22:25.603Z,97443.81
2023-01-09T22:24:59.703Z,97449.56
2023-01-09T22:27:32.660Z,97454.75
2023-01-09T22:30:10.620Z,97449.25
2023-01-09T22:32:43.793Z,97464.78
2023-01-09T22:35:16.925Z,97469.44
2023-01-09T22:37:49.908Z,97471.19
2023-01-09T22:40:22.903Z,97475.59
2023-01-09T22:42:56.233Z,97483.97
2023-01-09T22:45:31.008Z,97493.22
2023-01-09T22:48:04.089Z,97497.94
2023-01-09T22:50:37.653Z,97496.97
2023-01-09T22:53:10.669Z,97495.41
2023-01-09T22:55:43.633Z,97488.03
2023-01-09T22:58:16.632Z,97492.13
2023-01-09T23:00:50.971Z,97501.25
2023-01-09T23:03:24.728Z,97499.81
2023-01-09T23:06:02.555Z,97500.03
2023-01-09T23:08:36.251Z,97501.25
2023-01-09T23:11:13.306Z,97507.09
2023-01-09T23:13:46.253Z,97514.34
2023-01-09T23:16:20.614Z,97527.03
2023-01-09T23:18:53.633Z,97531.09
2023-01-09T23:21:26.623Z,97525.28
2023-01-09T23:23:59.599Z,97519.66
2023-01-09T23:26:34.511Z,97529.00
2023-01-09T23:29:07.993Z,97527.47
2023-01-09T23:31:42.524Z,97528.47
2023-01-09T23:34:19.560Z,97536.94
2023-01-09T23:36:55.389Z,97536.06
2023-01-09T23:39:28.404Z,97545.84
2023-01-09T23:42:19.217Z,97547.84
2023-01-09T23:44:52.288Z,97557.34
2023-01-09T23:47:26.612Z,97552.91
2023-01-09T23:49:59.610Z,97559.09
2023-01-09T23:52:32.598Z,97565.69
2023-01-09T23:55:06.952Z,97574.88
2023-01-09T23:57:39.984Z,97575.75
